Main page
METAR-TAF:

METAR-TAF

Airports :

RAF Wittering

Wittering, England

latitude: 52-37N, longitude: 000-28W, elevation: 84 m

Current weather observation

The report was made 57 minutes ago, at 00:50 UTC
Wind 19 kt from the West/Southwest
Temperature 4°C
Humidity 75%
Pressure 1014 hPa
Visibility 10 km or more

METAR: EGXT 180050Z AUTO 25019KT 9999 NCD 04/00 Q1014

Time: 01:47 (01:47 UTC)

Forecast

The report was made 11 hours and 51 minutes ago, at 13:56 UTC
Forecast valid from 17 at 15 UTC to 17 at 18 UTC
Wind 18 kt from the West/Southwest
Visibility 10 km or more
Scattered clouds at a height of 3000 ft
Temporary
from 17 at 15 UTC to 17 at 18 UTC
Scattered clouds at a height of 2200 ft
light rain showers
Probability 40% :
Temporary
from 17 at 15 UTC to 17 at 18 UTC
Wind 21 kt from the West/Southwest with gusts up to 31 kt
Visibility: 7000 m
rain showers

TAF: EGXT 171356Z 1715/1718 24018KT 9999 SCT030 TEMPO 1715/1718 -SHRA SCT022 PROB40 TEMPO 1715/1718 24021G31KT 7000 SHRA

Weather observations and forecasts of more than 4000 airports (METAR and TAF reports).

The available stations are represented by yellow and red dots on the map.

Hover mouse over dot to see the name of the station.

Then click to see weather observations and forecasts.

To change the map : click on the green buttons with a black cross to zoom in, on the green button with a dash to zoom out, or on the green arrows for adjacent maps.


METAR-TAF: